createdAt,value
2023-02-15T00:02:39.745Z,7.50
2023-02-15T00:05:41.872Z,7.00
2023-02-15T00:08:43.971Z,7.00
2023-02-15T00:11:52.077Z,6.50
2023-02-15T00:14:54.244Z,7.20
2023-02-15T00:21:03.448Z,6.00
2023-02-15T00:24:08.063Z,6.70
2023-02-15T00:27:09.945Z,7.00
2023-02-15T00:30:12.438Z,6.40
2023-02-15T00:33:14.342Z,7.20
2023-02-15T00:36:16.218Z,6.70
2023-02-15T00:39:19.005Z,7.10
2023-02-15T00:42:20.982Z,7.00
2023-02-15T00:45:22.861Z,7.50
2023-02-15T00:48:24.970Z,7.80
2023-02-15T00:51:27.236Z,8.10
2023-02-15T00:54:29.146Z,8.00
2023-02-15T00:57:31.891Z,10.00
2023-02-15T01:00:33.974Z,10.40
2023-02-15T01:03:36.578Z,10.10
2023-02-15T01:06:38.548Z,10.10
2023-02-15T01:09:40.435Z,10.60
2023-02-15T01:12:42.564Z,9.90
2023-02-15T01:15:45.236Z,9.30
2023-02-15T01:18:47.574Z,9.30
2023-02-15T01:21:50.465Z,8.60
2023-02-15T01:24:52.471Z,10.20
2023-02-15T01:27:54.316Z,10.00
2023-02-15T01:30:56.261Z,10.00
2023-02-15T01:33:58.146Z,10.00
2023-02-15T01:36:59.949Z,10.00
2023-02-15T01:40:03.338Z,10.70
2023-02-15T01:43:12.506Z,10.00
2023-02-15T01:46:18.134Z,11.10
2023-02-15T01:49:24.196Z,11.00
2023-02-15T01:52:27.005Z,10.90
2023-02-15T01:55:37.354Z,10.10
2023-02-15T01:58:39.318Z,10.20
2023-02-15T02:01:41.251Z,11.00
2023-02-15T02:04:49.490Z,11.80
2023-02-15T02:07:56.902Z,11.50
2023-02-15T02:10:58.775Z,11.80
2023-02-15T02:14:00.696Z,12.40
2023-02-15T02:17:15.594Z,13.20
2023-02-15T02:20:29.248Z,14.60
2023-02-15T02:24:08.373Z,13.90
2023-02-15T02:27:28.275Z,14.70
2023-02-15T02:30:53.921Z,14.00
2023-02-15T02:34:12.958Z,14.40
2023-02-15T02:37:28.578Z,14.30
2023-02-15T02:40:39.131Z,13.80
2023-02-15T02:43:52.029Z,13.60
2023-02-15T02:47:08.161Z,14.20
2023-02-15T02:50:21.850Z,15.30
2023-02-15T02:53:24.030Z,16.00
2023-02-15T02:59:42.864Z,15.40
2023-02-15T03:02:49.241Z,16.60
2023-02-15T03:05:55.858Z,16.80
2023-02-15T03:09:06.731Z,16.70
2023-02-15T03:12:14.214Z,17.40
2023-02-15T03:15:52.013Z,18.60
2023-02-15T03:19:14.152Z,18.80
2023-02-15T03:22:24.283Z,20.10
2023-02-15T03:25:32.933Z,20.20
2023-02-15T03:28:45.885Z,20.20
2023-02-15T03:32:04.489Z,22.80
2023-02-15T03:35:07.611Z,23.90
2023-02-15T03:38:11.277Z,25.30
2023-02-15T03:41:15.499Z,26.00
2023-02-15T03:44:47.557Z,27.60
2023-02-15T03:47:52.814Z,22.10
2023-02-15T03:51:17.918Z,27.90
2023-02-15T03:54:42.544Z,27.30
2023-02-15T03:58:03.890Z,26.70
2023-02-15T04:01:40.764Z,25.70
2023-02-15T04:04:47.640Z,27.80
2023-02-15T04:07:49.574Z,27.40
2023-02-15T04:10:55.440Z,27.90
2023-02-15T04:13:57.461Z,25.60
2023-02-15T04:16:59.376Z,25.60
2023-02-15T04:20:19.681Z,25.60
2023-02-15T04:23:40.069Z,23.70
2023-02-15T04:26:41.962Z,22.30
2023-02-15T04:29:44.072Z,24.30
2023-02-15T04:32:46.123Z,24.90
2023-02-15T04:35:48.016Z,24.00
2023-02-15T04:38:49.910Z,24.90
2023-02-15T04:41:51.824Z,26.00
2023-02-15T04:44:54.059Z,24.30
2023-02-15T04:47:55.956Z,24.40
2023-02-15T04:50:57.884Z,25.00
2023-02-15T04:53:59.870Z,25.40
2023-02-15T04:57:02.230Z,24.30
2023-02-15T05:00:04.834Z,25.30
2023-02-15T05:03:06.824Z,25.90
2023-02-15T05:06:08.748Z,25.90
2023-02-15T05:09:13.953Z,27.60
2023-02-15T05:12:15.944Z,25.70
2023-02-15T05:15:18.220Z,27.30
2023-02-15T05:21:23.210Z,26.40
2023-02-15T05:28:05.332Z,24.90
2023-02-15T05:31:12.453Z,24.80
2023-02-15T05:34:14.814Z,26.50
2023-02-15T05:37:16.746Z,25.20
2023-02-15T05:40:18.754Z,23.10
2023-02-15T05:43:21.365Z,24.50
2023-02-15T05:46:23.446Z,22.10
2023-02-15T05:49:25.957Z,23.30
2023-02-15T05:52:27.860Z,23.00
2023-02-15T05:55:29.753Z,22.80
2023-02-15T05:58:34.524Z,23.60
2023-02-15T06:01:36.428Z,21.20
2023-02-15T06:04:38.240Z,21.50
2023-02-15T06:07:44.163Z,23.00
2023-02-15T06:10:46.885Z,22.50
2023-02-15T06:13:48.750Z,22.20
2023-02-15T06:16:51.690Z,23.30
2023-02-15T06:19:53.550Z,22.50
2023-02-15T06:22:55.389Z,22.80
2023-02-15T06:25:57.817Z,23.50
2023-02-15T06:28:59.649Z,24.00
2023-02-15T06:32:01.750Z,23.40
2023-02-15T06:35:04.157Z,22.00
2023-02-15T06:38:06.610Z,23.10
2023-02-15T06:44:10.208Z,22.40
2023-02-15T06:47:12.151Z,23.90
2023-02-15T06:50:14.226Z,26.00
2023-02-15T06:53:16.050Z,23.20
2023-02-15T06:56:17.914Z,23.20
2023-02-15T06:59:19.676Z,23.70
2023-02-15T07:02:21.703Z,23.50
2023-02-15T07:05:24.369Z,23.70
2023-02-15T07:08:27.554Z,23.30
2023-02-15T07:11:47.893Z,22.80
2023-02-15T07:14:50.298Z,23.50
2023-02-15T07:20:54.128Z,21.80
2023-02-15T07:23:59.157Z,21.80
2023-02-15T07:27:01.371Z,22.30
2023-02-15T07:30:04.899Z,22.60
2023-02-15T07:33:25.087Z,22.00
2023-02-15T07:36:27.014Z,20.90
2023-02-15T07:39:28.877Z,19.50
2023-02-15T07:42:31.178Z,18.50
2023-02-15T07:48:35.825Z,19.40
2023-02-15T07:51:37.881Z,19.70
2023-02-15T07:54:39.799Z,19.50
2023-02-15T07:57:46.357Z,19.40
2023-02-15T08:00:57.079Z,19.90
2023-02-15T08:03:59.720Z,18.90
2023-02-15T08:07:01.655Z,20.60
2023-02-15T08:10:03.797Z,20.20
2023-02-15T08:13:05.684Z,21.50
2023-02-15T08:16:07.572Z,21.80
2023-02-15T08:19:21.365Z,22.50
2023-02-15T08:22:23.261Z,22.30
2023-02-15T08:25:25.120Z,24.20
2023-02-15T08:28:27.078Z,24.80
2023-02-15T08:31:29.344Z,23.30
2023-02-15T08:37:34.097Z,24.10
2023-02-15T08:40:38.362Z,25.90
2023-02-15T08:43:40.975Z,27.00
2023-02-15T08:46:44.792Z,26.40
2023-02-15T08:49:46.925Z,26.50
2023-02-15T08:52:48.841Z,27.00
2023-02-15T08:55:57.812Z,26.40
2023-02-15T08:59:00.115Z,29.10
2023-02-15T09:02:03.303Z,29.00
2023-02-15T09:05:05.555Z,29.00
2023-02-15T09:08:07.590Z,29.10
2023-02-15T09:11:12.177Z,29.40
2023-02-15T09:14:20.634Z,25.50
2023-02-15T09:17:22.522Z,26.80
2023-02-15T09:20:24.602Z,32.30
2023-02-15T09:23:28.103Z,27.20
2023-02-15T09:26:31.593Z,27.00
2023-02-15T09:29:33.414Z,26.50
2023-02-15T09:32:35.221Z,26.30
2023-02-15T09:35:37.063Z,27.60
2023-02-15T09:38:38.902Z,27.90
2023-02-15T09:41:53.929Z,28.20
2023-02-15T09:45:04.531Z,26.50
2023-02-15T09:48:32.920Z,26.70
2023-02-15T09:51:43.345Z,26.70
2023-02-15T09:54:58.320Z,25.80
2023-02-15T09:58:23.443Z,26.50
2023-02-15T10:01:49.613Z,26.60
2023-02-15T10:05:29.452Z,26.70
2023-02-15T10:09:15.835Z,27.90
2023-02-15T10:12:37.633Z,25.10
2023-02-15T10:16:01.871Z,26.20
2023-02-15T10:19:14.725Z,26.40
2023-02-15T10:22:57.755Z,26.50
2023-02-15T10:26:02.686Z,26.80
2023-02-15T10:29:21.400Z,28.30
2023-02-15T10:32:29.629Z,27.20
2023-02-15T10:35:53.731Z,27.40
2023-02-15T10:39:14.051Z,27.30
2023-02-15T10:42:30.952Z,27.10
2023-02-15T10:45:48.452Z,28.00
2023-02-15T10:49:24.075Z,27.40
2023-02-15T10:52:34.698Z,27.70
2023-02-15T10:56:30.136Z,26.60
2023-02-15T10:59:42.959Z,27.80
2023-02-15T11:03:03.237Z,27.40
2023-02-15T11:06:07.701Z,25.50
2023-02-15T11:09:16.488Z,24.30
2023-02-15T11:12:23.172Z,23.00
2023-02-15T11:15:48.205Z,23.70
2023-02-15T11:18:53.645Z,24.10
2023-02-15T11:22:03.304Z,23.90
2023-02-15T11:25:18.120Z,24.40
2023-02-15T11:28:28.162Z,22.80
2023-02-15T11:31:41.601Z,23.20
2023-02-15T11:34:59.087Z,24.40
2023-02-15T11:38:13.320Z,23.60
2023-02-15T11:41:20.453Z,22.20
2023-02-15T11:44:38.326Z,21.70
2023-02-15T11:47:40.701Z,22.80
2023-02-15T11:50:44.764Z,22.00
2023-02-15T11:53:48.366Z,19.50
2023-02-15T11:56:50.779Z,18.40
2023-02-15T12:00:17.326Z,20.80
2023-02-15T12:03:23.677Z,18.60
2023-02-15T12:06:41.695Z,20.10
2023-02-15T12:10:21.796Z,17.00
2023-02-15T12:13:24.010Z,17.40
2023-02-15T12:19:33.628Z,17.10
2023-02-15T12:22:37.856Z,16.30
2023-02-15T12:25:54.547Z,16.00
2023-02-15T12:29:02.422Z,15.20
2023-02-15T12:32:06.970Z,15.30
2023-02-15T12:35:15.043Z,16.40
2023-02-15T12:38:16.864Z,16.80
2023-02-15T12:41:25.809Z,15.50
2023-02-15T12:44:32.249Z,16.10
2023-02-15T12:47:35.232Z,13.90
2023-02-15T12:50:37.288Z,12.80
2023-02-15T12:53:39.712Z,13.90
2023-02-15T12:56:41.741Z,13.30
2023-02-15T12:59:51.857Z,12.50
2023-02-15T13:02:56.409Z,12.60
2023-02-15T13:05:59.236Z,13.10
2023-02-15T13:09:18.189Z,13.70
2023-02-15T13:12:30.919Z,12.70
2023-02-15T13:15:37.328Z,12.50
2023-02-15T13:18:52.522Z,12.50
2023-02-15T13:21:56.887Z,13.00
2023-02-15T13:25:03.935Z,13.70
2023-02-15T13:28:10.803Z,14.40
2023-02-15T13:31:16.798Z,14.30
2023-02-15T13:34:35.371Z,13.50
2023-02-15T13:38:02.503Z,14.70
2023-02-15T13:41:16.225Z,13.70
2023-02-15T13:44:46.199Z,14.20
2023-02-15T13:48:05.698Z,12.40
2023-02-15T13:51:36.099Z,13.70
2023-02-15T13:55:08.928Z,12.90
2023-02-15T13:58:33.780Z,12.90
2023-02-15T14:01:52.161Z,14.00
2023-02-15T14:04:54.275Z,21.90
2023-02-15T14:08:05.512Z,12.90
2023-02-15T14:11:19.454Z,18.00
2023-02-15T14:14:50.391Z,14.40
2023-02-15T14:17:55.470Z,14.70
2023-02-15T14:21:19.697Z,15.50
2023-02-15T14:24:37.707Z,15.80
2023-02-15T14:27:53.377Z,16.30
2023-02-15T14:30:55.703Z,15.50
2023-02-15T14:33:58.574Z,15.40
2023-02-15T14:37:02.195Z,16.60
2023-02-15T14:40:34.604Z,14.90
2023-02-15T14:44:14.273Z,15.50
2023-02-15T14:47:31.098Z,16.20
2023-02-15T14:50:39.815Z,15.70
2023-02-15T14:53:42.624Z,15.70
2023-02-15T14:56:46.307Z,14.90
2023-02-15T14:59:57.700Z,14.60
2023-02-15T15:03:00.680Z,15.30
2023-02-15T15:06:05.942Z,16.00
2023-02-15T15:09:25.978Z,15.80
2023-02-15T15:12:34.036Z,15.60
2023-02-15T15:15:47.042Z,16.60
2023-02-15T15:18:49.617Z,16.40
2023-02-15T15:21:56.522Z,17.40
2023-02-15T15:25:04.465Z,17.70
2023-02-15T15:28:06.564Z,19.00
2023-02-15T15:31:48.778Z,18.80
2023-02-15T15:35:15.466Z,23.40
2023-02-15T15:38:54.902Z,20.10
2023-02-15T15:42:34.494Z,18.10
2023-02-15T15:45:52.942Z,20.30
2023-02-15T15:48:54.995Z,20.20
2023-02-15T15:52:01.394Z,18.70
2023-02-15T15:55:14.198Z,16.60
2023-02-15T15:58:19.612Z,18.40
2023-02-15T16:01:30.361Z,18.70
2023-02-15T16:04:35.241Z,18.90
2023-02-15T16:07:40.532Z,17.90
2023-02-15T16:10:42.525Z,19.00
2023-02-15T16:13:44.890Z,21.90
2023-02-15T16:19:52.364Z,19.40
2023-02-15T16:23:31.091Z,21.30
2023-02-15T16:26:53.452Z,24.20
2023-02-15T16:29:55.509Z,24.90
2023-02-15T16:33:10.063Z,23.60
2023-02-15T16:36:20.237Z,26.30
2023-02-15T16:39:22.366Z,31.10
2023-02-15T16:42:25.186Z,35.80
2023-02-15T16:45:29.325Z,37.20
2023-02-15T16:48:33.719Z,36.30
2023-02-15T16:51:36.536Z,33.80
2023-02-15T16:54:43.113Z,29.60
2023-02-15T16:57:45.791Z,29.40
2023-02-15T17:00:47.967Z,27.90
2023-02-15T17:03:51.924Z,24.90
2023-02-15T17:07:16.930Z,22.40
2023-02-15T17:10:30.576Z,21.00
2023-02-15T17:13:32.428Z,20.90
2023-02-15T17:16:53.096Z,20.80
2023-02-15T17:19:55.943Z,19.90
2023-02-15T17:22:58.310Z,20.20
2023-02-15T17:29:13.461Z,25.80
2023-02-15T17:32:22.366Z,24.80
2023-02-15T17:35:27.699Z,27.90
2023-02-15T17:38:29.667Z,27.60
2023-02-15T17:41:34.605Z,28.20
2023-02-15T17:44:36.474Z,25.10
2023-02-15T17:47:39.923Z,28.20
2023-02-15T17:50:41.846Z,31.20
2023-02-15T17:54:06.316Z,28.90
2023-02-15T17:57:16.140Z,25.70
2023-02-15T18:00:36.924Z,26.70
2023-02-15T18:03:59.890Z,26.50
2023-02-15T18:07:20.490Z,26.20
2023-02-15T18:10:40.717Z,26.00
2023-02-15T18:13:42.670Z,29.20
2023-02-15T18:16:45.567Z,37.10
2023-02-15T18:19:47.860Z,29.00
2023-02-15T18:25:52.835Z,25.80
2023-02-15T18:28:55.499Z,37.40
2023-02-15T18:31:59.319Z,28.30
2023-02-15T18:35:04.000Z,30.50
2023-02-15T18:38:06.148Z,27.80
2023-02-15T18:41:15.688Z,27.30
2023-02-15T18:44:17.604Z,27.50
2023-02-15T18:47:19.393Z,27.30
2023-02-15T18:50:24.072Z,27.00
2023-02-15T18:53:26.014Z,27.20
2023-02-15T18:56:30.083Z,28.40
2023-02-15T18:59:32.027Z,41.30
2023-02-15T19:02:33.876Z,29.60
2023-02-15T19:05:35.921Z,29.30
2023-02-15T19:08:37.843Z,29.10
2023-02-15T19:11:39.804Z,30.60
2023-02-15T19:14:41.742Z,31.20
2023-02-15T19:17:44.197Z,31.90
2023-02-15T19:20:47.204Z,33.50
2023-02-15T19:23:57.169Z,32.80
2023-02-15T19:26:59.281Z,33.60
2023-02-15T19:30:16.040Z,32.40
2023-02-15T19:33:20.310Z,33.10
2023-02-15T19:36:22.470Z,32.60
2023-02-15T19:39:37.046Z,33.10
2023-02-15T19:42:38.930Z,33.00
2023-02-15T19:45:40.780Z,32.80
2023-02-15T19:48:42.710Z,32.50
2023-02-15T19:51:44.938Z,32.50
2023-02-15T19:54:48.570Z,33.20
2023-02-15T19:57:51.670Z,32.90
2023-02-15T20:00:53.520Z,33.30
2023-02-15T20:03:55.397Z,34.30
2023-02-15T20:07:00.890Z,31.90
2023-02-15T20:10:03.308Z,33.80
2023-02-15T20:13:05.315Z,33.00
2023-02-15T20:16:09.083Z,32.50
2023-02-15T20:19:12.401Z,33.00
2023-02-15T20:22:25.824Z,33.50
2023-02-15T20:25:30.320Z,33.80
2023-02-15T20:28:32.379Z,34.40
2023-02-15T20:31:34.433Z,35.10
2023-02-15T20:34:36.439Z,39.50
2023-02-15T20:37:38.550Z,33.90
2023-02-15T20:41:00.785Z,31.80
2023-02-15T20:44:19.457Z,32.10
2023-02-15T20:47:21.311Z,33.30
2023-02-15T20:50:25.894Z,25.10
2023-02-15T20:53:28.402Z,32.20
2023-02-15T20:56:30.934Z,32.70
2023-02-15T20:59:34.533Z,31.30
2023-02-15T21:02:36.480Z,31.60
2023-02-15T21:05:38.681Z,31.50
2023-02-15T21:08:40.917Z,32.40
2023-02-15T21:11:46.908Z,30.30
2023-02-15T21:14:48.885Z,30.10
2023-02-15T21:17:50.861Z,30.90
2023-02-15T21:20:56.861Z,30.30
2023-02-15T21:23:58.723Z,29.90
2023-02-15T21:27:02.968Z,29.60
2023-02-15T21:30:14.344Z,30.20
2023-02-15T21:33:17.018Z,30.20
2023-02-15T21:39:24.425Z,29.00
2023-02-15T21:42:46.139Z,30.70
2023-02-15T21:46:06.552Z,29.80
2023-02-15T21:49:10.084Z,32.40
2023-02-15T21:52:14.052Z,33.80
2023-02-15T21:55:16.253Z,33.10
2023-02-15T22:01:26.018Z,31.40
2023-02-15T22:04:29.581Z,32.00
2023-02-15T22:07:31.421Z,31.10
2023-02-15T22:10:33.312Z,30.50
2023-02-15T22:13:35.405Z,33.00
2023-02-15T22:16:37.306Z,30.70
2023-02-15T22:19:39.228Z,31.00
2023-02-15T22:22:41.019Z,32.10
2023-02-15T22:25:49.450Z,32.10
2023-02-15T22:28:51.575Z,30.70
2023-02-15T22:31:53.624Z,30.90
2023-02-15T22:34:55.614Z,29.50
2023-02-15T22:37:58.304Z,30.80
2023-02-15T22:41:03.456Z,30.10
2023-02-15T22:44:05.628Z,30.70
2023-02-15T22:50:30.950Z,29.20
2023-02-15T22:53:32.802Z,29.70
2023-02-15T22:56:39.362Z,31.00
2023-02-15T22:59:43.926Z,29.90
2023-02-15T23:02:46.509Z,30.00
2023-02-15T23:05:48.729Z,29.70
2023-02-15T23:08:50.574Z,29.30
2023-02-15T23:11:53.331Z,28.90
2023-02-15T23:14:56.626Z,27.80
2023-02-15T23:18:17.587Z,29.30
2023-02-15T23:21:31.061Z,29.30
2023-02-15T23:24:33.907Z,28.20
2023-02-15T23:27:54.211Z,30.00
2023-02-15T23:30:58.463Z,28.40
2023-02-15T23:34:06.682Z,27.00
2023-02-15T23:37:11.799Z,28.80
2023-02-15T23:40:37.701Z,26.80
2023-02-15T23:43:42.171Z,26.90
2023-02-15T23:46:49.187Z,29.80
2023-02-15T23:49:51.133Z,27.50
2023-02-15T23:52:54.503Z,27.90
2023-02-15T23:55:57.597Z,28.00
2023-02-15T23:58:59.836Z,28.00
